createdAt,value
2019-04-27T00:00:45.234Z,12.60
2019-04-27T00:03:16.140Z,12.60
2019-04-27T00:08:59.736Z,12.50
2019-04-27T00:11:37.416Z,12.50
2019-04-27T00:14:04.896Z,12.50
2019-04-27T00:16:50.824Z,12.60
2019-04-27T00:19:31.834Z,12.60
2019-04-27T00:22:03.142Z,12.60
2019-04-27T00:24:33.570Z,12.60
2019-04-27T00:27:03.694Z,12.60
2019-04-27T00:29:33.236Z,12.70
2019-04-27T00:32:04.288Z,12.80
2019-04-27T00:34:34.043Z,12.90
2019-04-27T00:37:05.024Z,12.90
2019-04-27T00:40:06.342Z,13.00
2019-04-27T00:42:35.833Z,13.00
2019-04-27T00:45:06.510Z,12.90
2019-04-27T00:47:35.776Z,13.00
2019-04-27T00:50:06.654Z,13.00
2019-04-27T00:52:35.912Z,13.00
2019-04-27T00:55:06.676Z,13.00
2019-04-27T00:57:43.631Z,12.90
2019-04-27T01:00:20.562Z,12.90
2019-04-27T01:02:57.474Z,13.00
2019-04-27T01:05:28.295Z,12.90
2019-04-27T01:07:57.574Z,12.90
2019-04-27T01:10:27.034Z,12.90
2019-04-27T01:12:56.378Z,12.90
2019-04-27T01:15:25.776Z,13.00
2019-04-27T01:18:07.045Z,12.90
2019-04-27T01:20:25.960Z,12.70
2019-04-27T01:22:56.477Z,12.70
2019-04-27T01:25:28.976Z,12.50
2019-04-27T01:28:16.092Z,12.40
2019-04-27T01:30:47.009Z,12.30
2019-04-27T01:33:16.273Z,12.10
2019-04-27T01:35:45.523Z,12.20
2019-04-27T01:38:14.760Z,12.30
2019-04-27T01:40:44.067Z,12.40
2019-04-27T01:43:13.318Z,12.50
2019-04-27T01:45:42.630Z,12.60
2019-04-27T01:48:22.915Z,12.60
2019-04-27T01:50:43.055Z,12.60
2019-04-27T01:53:12.310Z,12.60
2019-04-27T01:55:41.551Z,12.60
2019-04-27T01:58:11.119Z,12.50
2019-04-27T02:01:02.159Z,12.40
2019-04-27T02:03:35.907Z,12.40
2019-04-27T02:06:05.292Z,12.50
2019-04-27T02:08:34.524Z,12.50
2019-04-27T02:11:03.862Z,12.40
2019-04-27T02:13:33.116Z,12.30
2019-04-27T02:16:02.372Z,12.20
2019-04-27T02:18:37.617Z,12.20
2019-04-27T02:21:05.588Z,12.20
2019-04-27T02:23:34.833Z,12.30
2019-04-27T02:26:08.504Z,12.10
2019-04-27T02:28:39.615Z,12.00
2019-04-27T02:31:25.615Z,12.00
2019-04-27T02:34:11.693Z,11.80
2019-04-27T02:36:41.075Z,11.80
2019-04-27T02:39:10.575Z,12.00
2019-04-27T02:41:40.190Z,12.00
2019-04-27T02:44:23.373Z,12.00
2019-04-27T02:46:52.718Z,11.90
2019-04-27T02:49:21.960Z,11.90
2019-04-27T02:52:10.463Z,11.80
2019-04-27T02:54:40.106Z,11.60
2019-04-27T02:57:10.228Z,11.60
2019-04-27T02:59:40.113Z,11.60
2019-04-27T03:02:11.166Z,11.60
2019-04-27T03:04:40.451Z,11.50
2019-04-27T03:07:11.501Z,11.50
2019-04-27T03:09:40.709Z,11.50
2019-04-27T03:12:10.426Z,11.60
2019-04-27T03:14:44.798Z,11.60
2019-04-27T03:17:30.662Z,11.70
2019-04-27T03:20:03.139Z,11.80
2019-04-27T03:22:34.042Z,11.90
2019-04-27T03:25:15.223Z,11.90
2019-04-27T03:27:44.447Z,12.00
2019-04-27T03:30:15.791Z,12.00
2019-04-27T03:32:45.201Z,11.80
2019-04-27T03:35:14.573Z,11.80
2019-04-27T03:37:44.592Z,11.90
2019-04-27T03:40:13.983Z,11.90
2019-04-27T03:42:44.932Z,11.90
2019-04-27T03:45:14.450Z,11.80
2019-04-27T03:47:44.005Z,11.70
2019-04-27T03:50:15.306Z,11.70
2019-04-27T03:53:04.512Z,11.70
2019-04-27T03:55:52.117Z,11.70
2019-04-27T03:58:25.891Z,11.80
2019-04-27T04:00:55.317Z,11.90
2019-04-27T04:03:25.126Z,11.90
2019-04-27T04:05:54.621Z,11.80
2019-04-27T04:08:23.943Z,11.80
2019-04-27T04:10:54.891Z,11.70
2019-04-27T04:13:42.210Z,11.70
2019-04-27T04:16:13.108Z,11.80
2019-04-27T04:19:00.753Z,11.70
2019-04-27T04:21:30.639Z,11.60
2019-04-27T04:24:01.152Z,11.60
2019-04-27T04:26:32.733Z,11.50
2019-04-27T04:29:01.917Z,11.50
2019-04-27T04:31:33.245Z,11.50
2019-04-27T04:34:02.282Z,11.50
2019-04-27T04:36:31.738Z,11.60
2019-04-27T04:39:01.134Z,11.70
2019-04-27T04:41:51.099Z,11.80
2019-04-27T04:44:39.999Z,11.80
2019-04-27T04:47:30.607Z,11.90
2019-04-27T04:50:11.102Z,12.00
2019-04-27T04:52:31.020Z,12.10
2019-04-27T04:55:02.730Z,12.20
2019-04-27T04:57:31.259Z,12.10
2019-04-27T05:00:00.515Z,12.10
2019-04-27T05:02:29.738Z,12.20
2019-04-27T05:04:59.124Z,12.30
2019-04-27T05:07:29.695Z,12.40
2019-04-27T05:09:59.113Z,12.30
2019-04-27T05:12:29.858Z,12.20
2019-04-27T05:14:59.250Z,12.30
2019-04-27T05:17:29.663Z,12.30
2019-04-27T05:20:00.757Z,12.40
2019-04-27T05:22:30.062Z,12.40
2019-04-27T05:25:02.291Z,12.40
2019-04-27T05:27:31.561Z,12.40
2019-04-27T05:30:00.866Z,12.50
2019-04-27T05:32:30.104Z,12.70
2019-04-27T05:34:59.703Z,12.80
2019-04-27T05:37:31.637Z,12.90
2019-04-27T05:39:59.928Z,13.10
2019-04-27T05:42:29.175Z,13.20
2019-04-27T05:45:22.854Z,13.30
2019-04-27T05:48:02.028Z,13.20
2019-04-27T05:50:38.822Z,13.30
2019-04-27T05:53:02.226Z,13.40
2019-04-27T05:55:31.475Z,13.40
2019-04-27T05:58:00.798Z,13.40
2019-04-27T06:00:30.030Z,13.30
2019-04-27T06:02:59.261Z,13.30
2019-04-27T06:05:29.255Z,13.30
2019-04-27T06:07:58.977Z,13.50
2019-04-27T06:10:29.681Z,13.50
2019-04-27T06:12:59.811Z,13.60
2019-04-27T06:15:30.207Z,13.70
2019-04-27T06:17:59.746Z,13.80
2019-04-27T06:20:29.073Z,13.80
2019-04-27T06:22:58.860Z,13.80
2019-04-27T06:25:30.564Z,13.70
2019-04-27T06:27:59.363Z,13.70
2019-04-27T06:30:29.270Z,13.70
2019-04-27T06:32:59.425Z,13.80
2019-04-27T06:35:28.922Z,13.90
2019-04-27T06:37:58.667Z,13.90
2019-04-27T06:40:29.085Z,14.00
2019-04-27T06:42:59.585Z,14.10
2019-04-27T06:45:29.005Z,14.20
2019-04-27T06:47:59.555Z,14.10
2019-04-27T06:50:29.557Z,14.10
2019-04-27T06:52:59.113Z,14.00
2019-04-27T06:55:29.115Z,13.90
2019-04-27T06:57:58.951Z,13.90
2019-04-27T07:00:28.876Z,13.90
2019-04-27T07:02:59.709Z,13.90
2019-04-27T07:05:29.127Z,13.90
2019-04-27T07:07:59.118Z,13.90
2019-04-27T07:10:28.690Z,13.90
2019-04-27T07:12:59.710Z,13.90
2019-04-27T07:15:29.310Z,14.00
2019-04-27T07:17:58.695Z,14.00
2019-04-27T07:20:30.315Z,13.90
2019-04-27T07:22:59.472Z,13.90
2019-04-27T07:25:28.976Z,14.00
2019-04-27T07:27:59.191Z,14.10
2019-04-27T07:30:28.898Z,14.00
2019-04-27T07:32:58.705Z,13.90
2019-04-27T07:35:30.230Z,13.60
2019-04-27T07:37:59.498Z,13.50
2019-04-27T07:40:30.354Z,13.30
2019-04-27T07:43:04.328Z,13.20
2019-04-27T07:45:39.506Z,13.20
2019-04-27T07:48:09.214Z,13.00
2019-04-27T07:50:39.688Z,12.60
2019-04-27T07:53:08.923Z,12.30
2019-04-27T07:55:39.553Z,12.10
2019-04-27T07:58:09.005Z,11.80
2019-04-27T08:00:39.503Z,11.70
2019-04-27T08:03:10.017Z,11.80
2019-04-27T08:05:39.503Z,11.90
2019-04-27T08:08:08.991Z,11.80
2019-04-27T08:10:40.568Z,11.70
2019-04-27T08:13:09.820Z,11.80
2019-04-27T08:15:39.596Z,11.80
2019-04-27T08:18:09.307Z,11.80
2019-04-27T08:20:39.096Z,11.80
2019-04-27T08:23:09.665Z,11.70
2019-04-27T08:25:39.353Z,11.70
2019-04-27T08:28:22.497Z,11.60
2019-04-27T08:31:00.417Z,11.60
2019-04-27T08:33:29.870Z,11.60
2019-04-27T08:35:59.217Z,11.60
2019-04-27T08:38:29.007Z,11.50
2019-04-27T08:40:59.265Z,11.40
2019-04-27T08:43:29.083Z,11.50
2019-04-27T08:46:00.237Z,11.50
2019-04-27T08:48:36.038Z,11.50
2019-04-27T08:51:00.471Z,11.60
2019-04-27T08:53:29.951Z,11.70
2019-04-27T08:55:59.342Z,11.70
2019-04-27T08:58:28.740Z,11.80
2019-04-27T09:00:59.049Z,11.80
2019-04-27T09:03:29.423Z,11.80
2019-04-27T09:05:59.138Z,11.90
2019-04-27T09:08:31.098Z,11.90
2019-04-27T09:11:04.925Z,12.10
2019-04-27T09:13:35.886Z,12.20
2019-04-27T09:16:11.098Z,12.10
2019-04-27T09:18:41.013Z,12.10
2019-04-27T09:21:10.637Z,12.00
2019-04-27T09:23:40.079Z,12.00
2019-04-27T09:26:11.109Z,12.10
2019-04-27T09:28:40.522Z,12.10
2019-04-27T09:31:09.765Z,12.20
2019-04-27T09:33:39.085Z,12.20
2019-04-27T09:36:09.759Z,12.20
2019-04-27T09:38:39.145Z,12.20
2019-04-27T09:41:08.410Z,12.20
2019-04-27T09:43:37.669Z,12.10
2019-04-27T09:46:06.974Z,12.10
2019-04-27T09:48:36.314Z,12.10
2019-04-27T09:51:06.476Z,12.10
2019-04-27T09:53:36.474Z,12.00
2019-04-27T09:56:06.101Z,12.00
2019-04-27T09:58:36.607Z,11.90
2019-04-27T10:01:06.624Z,11.90
2019-04-27T10:03:36.231Z,11.80
2019-04-27T10:06:05.970Z,11.70
2019-04-27T10:08:36.890Z,11.80
2019-04-27T10:11:06.394Z,11.90
2019-04-27T10:13:36.405Z,11.80
2019-04-27T10:16:06.347Z,11.80
2019-04-27T10:18:36.793Z,11.90
2019-04-27T10:21:07.265Z,12.00
2019-04-27T10:23:38.394Z,12.00
2019-04-27T10:26:09.025Z,12.20
2019-04-27T10:28:38.345Z,12.20
2019-04-27T10:31:08.264Z,12.10
2019-04-27T10:33:37.585Z,12.10
2019-04-27T10:36:06.964Z,12.30
2019-04-27T10:38:36.266Z,12.40
2019-04-27T10:41:07.633Z,12.50
2019-04-27T10:43:43.794Z,12.70
2019-04-27T10:46:13.038Z,12.70
2019-04-27T10:48:42.275Z,12.80
2019-04-27T10:51:11.539Z,12.90
2019-04-27T10:53:40.784Z,12.80
2019-04-27T10:56:11.007Z,12.80
2019-04-27T10:58:40.299Z,12.90
2019-04-27T11:01:09.636Z,12.80
2019-04-27T11:03:57.467Z,12.80
2019-04-27T11:06:31.495Z,12.90
2019-04-27T11:09:00.726Z,13.00
2019-04-27T11:11:30.968Z,12.90
2019-04-27T11:14:01.047Z,12.90
2019-04-27T11:16:30.593Z,13.00
2019-04-27T11:18:59.862Z,12.60
2019-04-27T11:21:29.092Z,11.80
2019-04-27T11:23:58.420Z,11.10
2019-04-27T11:26:27.650Z,10.80
2019-04-27T11:28:56.936Z,10.50
2019-04-27T11:31:26.235Z,10.40
2019-04-27T11:33:56.644Z,10.40
2019-04-27T11:36:27.723Z,10.30
2019-04-27T11:38:58.618Z,10.30
2019-04-27T11:41:27.982Z,10.40
2019-04-27T11:43:57.283Z,10.50
2019-04-27T11:46:26.735Z,10.50
2019-04-27T11:48:58.286Z,10.40
2019-04-27T11:51:27.253Z,10.50
2019-04-27T11:53:56.485Z,10.70
2019-04-27T11:56:27.408Z,10.80
2019-04-27T11:58:56.979Z,10.90
2019-04-27T12:01:27.038Z,10.90
2019-04-27T12:03:56.489Z,11.10
2019-04-27T12:06:25.904Z,11.30
2019-04-27T12:08:55.211Z,11.50
2019-04-27T12:11:26.058Z,11.30
2019-04-27T12:13:56.139Z,11.30
2019-04-27T12:16:26.216Z,11.60
2019-04-27T12:18:56.405Z,12.00
2019-04-27T12:21:25.834Z,12.40
2019-04-27T12:23:55.114Z,12.70
2019-04-27T12:26:26.015Z,12.80
2019-04-27T12:28:56.071Z,12.50
2019-04-27T12:31:33.109Z,12.40
2019-04-27T12:34:02.380Z,12.30
2019-04-27T12:36:31.675Z,12.20
2019-04-27T12:39:00.939Z,11.90
2019-04-27T12:41:30.220Z,11.60
2019-04-27T12:44:01.110Z,11.30
2019-04-27T12:46:31.842Z,11.20
2019-04-27T12:49:02.821Z,11.00
2019-04-27T12:51:32.143Z,10.90
2019-04-27T12:54:06.118Z,10.60
2019-04-27T12:56:55.815Z,10.30
2019-04-27T12:59:44.251Z,10.20
2019-04-27T13:02:13.877Z,10.20
2019-04-27T13:04:43.202Z,10.10
2019-04-27T13:07:12.502Z,10.00
2019-04-27T13:09:41.820Z,9.90
2019-04-27T13:12:11.267Z,9.80
2019-04-27T13:14:40.551Z,9.90
2019-04-27T13:17:09.937Z,10.00
2019-04-27T13:19:39.181Z,10.00
2019-04-27T13:22:08.545Z,10.00
2019-04-27T13:24:37.850Z,10.30
2019-04-27T13:27:07.151Z,10.40
2019-04-27T13:29:37.984Z,10.70
2019-04-27T13:32:07.242Z,10.90
2019-04-27T13:34:39.424Z,11.00
2019-04-27T13:37:26.764Z,11.10
2019-04-27T13:40:04.666Z,11.10
2019-04-27T13:42:29.010Z,11.20
2019-04-27T13:44:59.988Z,11.10
2019-04-27T13:47:36.815Z,11.20
2019-04-27T13:50:20.418Z,11.40
2019-04-27T13:52:49.674Z,11.40
2019-04-27T13:55:19.012Z,11.50
2019-04-27T13:57:50.388Z,11.60
2019-04-27T14:00:20.465Z,11.70
2019-04-27T14:02:49.875Z,11.90
2019-04-27T14:05:19.186Z,11.90
2019-04-27T14:07:49.437Z,11.90
2019-04-27T14:10:20.306Z,11.80
2019-04-27T14:12:50.995Z,11.80
2019-04-27T14:15:20.317Z,11.80
2019-04-27T14:17:50.078Z,11.80
2019-04-27T14:20:19.558Z,12.10
2019-04-27T14:22:49.410Z,12.50
2019-04-27T14:25:18.657Z,12.90
2019-04-27T14:27:48.874Z,13.00
2019-04-27T14:30:19.275Z,13.00
2019-04-27T14:32:48.531Z,13.10
2019-04-27T14:35:18.164Z,12.90
2019-04-27T14:37:48.471Z,12.90
2019-04-27T14:40:22.919Z,13.10
2019-04-27T14:42:53.657Z,13.40
2019-04-27T14:45:23.247Z,13.50
2019-04-27T14:47:52.496Z,13.60
2019-04-27T14:50:21.789Z,13.80
2019-04-27T14:52:51.105Z,13.60
2019-04-27T14:55:20.481Z,13.80
2019-04-27T14:57:49.732Z,13.80
2019-04-27T15:00:21.403Z,13.80
2019-04-27T15:02:50.736Z,13.90
2019-04-27T15:05:20.221Z,13.90
2019-04-27T15:07:51.267Z,13.90
2019-04-27T15:10:20.874Z,13.90
2019-04-27T15:12:51.210Z,13.90
2019-04-27T15:15:21.414Z,14.10
2019-04-27T15:17:50.899Z,14.10
2019-04-27T15:20:22.653Z,14.10
2019-04-27T15:22:56.902Z,14.10
2019-04-27T15:25:25.494Z,14.20
2019-04-27T15:27:56.359Z,14.10
2019-04-27T15:30:39.615Z,14.00
2019-04-27T15:33:25.074Z,13.80
2019-04-27T15:36:01.731Z,13.60
2019-04-27T15:38:32.713Z,13.50
2019-04-27T15:41:09.464Z,13.40
2019-04-27T15:43:40.390Z,13.20
2019-04-27T15:46:09.781Z,13.10
2019-04-27T15:48:39.032Z,12.70
2019-04-27T15:51:17.522Z,12.70
2019-04-27T15:53:41.558Z,12.90
2019-04-27T15:56:12.911Z,13.10
2019-04-27T15:58:42.246Z,13.30
2019-04-27T16:01:12.069Z,13.30
2019-04-27T16:03:41.497Z,13.20
2019-04-27T16:06:11.996Z,13.20
2019-04-27T16:08:45.250Z,13.30
2019-04-27T16:11:16.582Z,13.40
2019-04-27T16:13:44.271Z,13.50
2019-04-27T16:16:13.644Z,13.50
2019-04-27T16:18:43.115Z,13.40
2019-04-27T16:21:12.389Z,13.40
2019-04-27T16:23:43.139Z,13.50
2019-04-27T16:26:14.959Z,13.40
2019-04-27T16:28:49.714Z,13.10
2019-04-27T16:31:16.425Z,12.80
2019-04-27T16:33:48.088Z,12.50
2019-04-27T16:36:19.747Z,11.90
2019-04-27T16:38:56.896Z,11.20
2019-04-27T16:41:28.054Z,10.60
2019-04-27T16:43:58.173Z,10.50
2019-04-27T16:46:28.502Z,10.50
2019-04-27T16:48:59.523Z,10.50
2019-04-27T16:51:29.677Z,10.60
2019-04-27T16:54:00.367Z,10.60
2019-04-27T16:56:29.846Z,10.50
2019-04-27T16:59:11.603Z,10.40
2019-04-27T17:01:31.184Z,10.40
2019-04-27T17:04:00.516Z,10.40
2019-04-27T17:06:29.888Z,10.50
2019-04-27T17:11:30.375Z,10.60
2019-04-27T17:12:43.265Z,10.60
2019-04-27T17:14:01.360Z,10.60
2019-04-27T17:16:39.233Z,10.60
2019-04-27T17:19:12.980Z,10.70
2019-04-27T17:21:42.381Z,10.80
2019-04-27T17:24:11.670Z,10.80
2019-04-27T17:26:43.498Z,10.80
2019-04-27T17:29:16.488Z,11.00
2019-04-27T17:31:50.496Z,11.20
2019-04-27T17:34:19.002Z,11.30
2019-04-27T17:36:54.508Z,11.40
2019-04-27T17:39:23.542Z,11.50
2019-04-27T17:41:52.815Z,11.60
2019-04-27T17:44:23.307Z,11.50
2019-04-27T17:46:52.733Z,11.40
2019-04-27T17:49:22.098Z,11.50
2019-04-27T17:51:51.319Z,11.60
2019-04-27T17:54:20.587Z,11.70
2019-04-27T17:56:52.433Z,11.70
2019-04-27T17:59:21.080Z,11.70
2019-04-27T18:01:53.967Z,11.80
2019-04-27T18:04:21.371Z,11.90
2019-04-27T18:06:50.698Z,11.90
2019-04-27T18:09:20.787Z,11.90
2019-04-27T18:11:50.509Z,12.00
2019-04-27T18:14:19.857Z,12.10
2019-04-27T18:16:49.104Z,12.20
2019-04-27T18:19:44.237Z,12.20
2019-04-27T18:22:12.015Z,12.00
2019-04-27T18:24:45.972Z,11.90
2019-04-27T18:27:19.885Z,12.00
2019-04-27T18:29:49.228Z,12.00
2019-04-27T18:32:18.546Z,12.00
2019-04-27T18:34:49.473Z,11.90
2019-04-27T18:37:24.524Z,11.90
2019-04-27T18:39:50.901Z,11.60
2019-04-27T18:42:23.332Z,11.60
2019-04-27T18:44:51.666Z,11.70
2019-04-27T18:47:20.935Z,11.80
2019-04-27T18:49:54.866Z,11.80
2019-04-27T18:52:40.807Z,11.70
2019-04-27T18:55:11.206Z,11.00
2019-04-27T18:57:40.328Z,10.30
2019-04-27T19:00:12.447Z,9.90
2019-04-27T19:02:42.954Z,9.70
2019-04-27T19:05:13.991Z,9.60
2019-04-27T19:07:43.245Z,9.60
2019-04-27T19:10:15.224Z,9.40
2019-04-27T19:12:44.590Z,9.50
2019-04-27T19:15:14.022Z,9.70
2019-04-27T19:17:43.311Z,9.70
2019-04-27T19:20:12.897Z,9.80
2019-04-27T19:22:42.240Z,10.10
2019-04-27T19:25:13.178Z,9.80
2019-04-27T19:28:00.477Z,9.90
2019-04-27T19:30:31.451Z,9.90
2019-04-27T19:33:00.972Z,9.80
2019-04-27T19:35:30.282Z,9.80
2019-04-27T19:37:59.514Z,9.80
2019-04-27T19:40:29.080Z,9.90
2019-04-27T19:42:59.485Z,10.00
2019-04-27T19:45:29.286Z,10.00
2019-04-27T19:47:58.695Z,10.10
2019-04-27T19:50:28.578Z,10.20
2019-04-27T19:52:58.731Z,10.30
2019-04-27T19:55:28.321Z,10.10
2019-04-27T19:57:59.461Z,10.10
2019-04-27T20:00:36.641Z,10.10
2019-04-27T20:03:06.581Z,10.20
2019-04-27T20:05:35.879Z,10.50
2019-04-27T20:08:06.941Z,10.60
2019-04-27T20:10:36.301Z,10.70
2019-04-27T20:13:05.790Z,10.70
2019-04-27T20:15:35.139Z,10.60
2019-04-27T20:18:04.444Z,10.50
2019-04-27T20:20:33.762Z,10.50
2019-04-27T20:23:03.026Z,10.60
2019-04-27T20:25:32.256Z,10.70
2019-04-27T20:28:03.127Z,10.70
2019-04-27T20:30:32.493Z,10.60
2019-04-27T20:33:01.750Z,10.40
2019-04-27T20:35:31.036Z,10.50
2019-04-27T20:38:00.353Z,10.50
2019-04-27T20:40:31.499Z,10.60
2019-04-27T20:43:03.171Z,10.50
2019-04-27T20:45:32.757Z,10.40
2019-04-27T20:48:02.322Z,10.30
2019-04-27T20:50:32.902Z,10.20
2019-04-27T20:53:03.911Z,10.10
2019-04-27T20:55:33.182Z,10.00
2019-04-27T20:58:02.974Z,10.00
2019-04-27T21:00:32.365Z,10.10
2019-04-27T21:03:05.969Z,10.20
2019-04-27T21:05:45.960Z,10.40
2019-04-27T21:08:16.886Z,10.40
2019-04-27T21:10:46.134Z,10.50
2019-04-27T21:13:15.414Z,10.50
2019-04-27T21:15:44.758Z,10.50
2019-04-27T21:18:14.004Z,10.40
2019-04-27T21:20:43.743Z,10.30
2019-04-27T21:23:13.031Z,10.30
2019-04-27T21:25:42.327Z,10.30
2019-04-27T21:28:17.944Z,10.30
2019-04-27T21:30:42.691Z,10.20
2019-04-27T21:33:12.134Z,10.40
2019-04-27T21:35:41.630Z,10.40
2019-04-27T21:38:11.645Z,10.50
2019-04-27T21:40:41.883Z,10.50
2019-04-27T21:43:11.415Z,10.60
2019-04-27T21:45:42.024Z,10.70
2019-04-27T21:48:11.543Z,10.70
2019-04-27T21:50:43.832Z,10.70
2019-04-27T21:53:14.743Z,10.80
2019-04-27T21:55:44.057Z,10.70
2019-04-27T21:58:13.320Z,10.50
2019-04-27T22:00:44.238Z,10.60
2019-04-27T22:03:15.157Z,10.70
2019-04-27T22:05:44.405Z,10.80
2019-04-27T22:08:13.869Z,10.70
2019-04-27T22:10:43.287Z,10.70
2019-04-27T22:13:13.904Z,10.70
2019-04-27T22:15:43.443Z,10.70
2019-04-27T22:18:12.678Z,10.80
2019-04-27T22:20:42.697Z,10.80
2019-04-27T22:23:16.515Z,10.70
2019-04-27T22:25:45.865Z,10.50
2019-04-27T22:28:15.154Z,10.50
2019-04-27T22:30:44.403Z,10.40
2019-04-27T22:33:13.655Z,10.50
2019-04-27T22:35:43.047Z,10.40
2019-04-27T22:38:12.468Z,10.40
2019-04-27T22:40:43.366Z,10.50
2019-04-27T22:43:31.591Z,10.70
2019-04-27T22:46:02.575Z,10.60
2019-04-27T22:48:33.023Z,10.50
2019-04-27T22:51:03.656Z,10.50
2019-04-27T22:53:32.938Z,10.60
2019-04-27T22:56:22.330Z,10.70
2019-04-27T22:59:00.439Z,10.80
2019-04-27T23:01:28.932Z,10.80
2019-04-27T23:04:01.779Z,10.80
2019-04-27T23:06:32.658Z,10.90
2019-04-27T23:09:01.871Z,10.90
2019-04-27T23:11:32.498Z,10.90
2019-04-27T23:14:01.766Z,10.90
2019-04-27T23:16:32.714Z,11.00
2019-04-27T23:19:01.951Z,11.00
2019-04-27T23:21:31.409Z,11.00
2019-04-27T23:24:01.840Z,11.00
2019-04-27T23:26:31.383Z,11.00
2019-04-27T23:29:12.372Z,10.80
2019-04-27T23:31:33.287Z,10.80
2019-04-27T23:34:02.547Z,10.80
2019-04-27T23:36:33.352Z,10.80
2019-04-27T23:39:02.945Z,10.80
2019-04-27T23:41:32.231Z,10.80
2019-04-27T23:44:01.487Z,10.70
2019-04-27T23:46:30.831Z,10.70
2019-04-27T23:49:01.519Z,10.70
2019-04-27T23:51:32.682Z,10.70
2019-04-27T23:54:01.923Z,10.70
2019-04-27T23:56:31.853Z,10.70
2019-04-27T23:59:01.225Z,10.70
